Bodensee (Kressbronn): 6,1°C  -  Teich der Wetterzentrale Bad Schussenried: 5,0°C |  Schneehöhe Kreuzthal-Steinberg (930 m ü. NN): 10 cm   
13.12.2019Höhe
ü. NN
ZeitTemperatur (°C)Nieder-
schlag
Luft-
feuchte
Luft-
druck
Wind
StationaktuellMinimumMaximumaktuellMaximum
Aldingen654 m02:11-0,5-1,0 (21:41)-0,2 (11:26)0,2 l/m²90%991,314,8 km/h (3 Bft) SO22,2 km/h (4 Bft) O-SO (01:41)
Allmannsweiler625 m02:10-1,4-3,1 (01:00)-1,4 (02:10)0,0 l/m²92%991,18,0 km/h (2 Bft) SW11,3 km/h (2 Bft) W-SW (01:45)
Allmendingen541 m02:10-3,9-4,7 (23:50)-3,9 (14:25)0,0 l/m²93%991,60,0 km/h (0 Bft) O-NO22,5 km/h (4 Bft) W-SW (14:20)
Altshausen574 m02:10-3,3-4,6 (00:05)-3,2 (01:59)0,0 l/m²85%990,53,2 km/h (1 Bft) O-NO6,4 km/h (2 Bft) O-NO (01:53)
Amstetten-Reutti663 m02:10-3,4-4,8 (01:10)-3,4 (13:50)0,0 l/m²96%991,212,9 km/h (3 Bft) O-SO19,3 km/h (3 Bft) W-SW (14:10)
Amtzell-Grenis677 m02:10-1,4-2,4 (00:40)-1,1 (01:45)0,0 l/m²67%993,312,9 km/h (3 Bft) S20,9 km/h (4 Bft) S (01:25)
Aulendorf570 m02:10-2,4-3,0 (00:44)-2,3 (02:09)0,0 l/m²92%991,00,0 km/h (0 Bft) W4,8 km/h (1 Bft) O (00:14)
Bad Krozingen233 m02:106,10,7 (22:25)6,1 (02:10)0,4 l/m²80%989,229,7 km/h (5 Bft) S-SO37,9 km/h (5 Bft) SW (08:05)
Bad Saulgau595 m02:10-2,7-3,4 (00:45)-2,7 (14:05)0,0 l/m²93%990,20,0 km/h (0 Bft) SW27,4 km/h (4 Bft) N-NW (10:25)
Bad Saulgau-Lampertsweiler627 m02:10-2,6-3,1 (01:15)-2,2 (00:05)0,0 l/m²88%993,70,0 km/h (0 Bft) S-SO0,0 km/h (0 Bft) S-SO (00:00)
Bad Schussenried572 m02:10-3,2-3,8 (00:00)-3,2 (02:05)0,0 l/m²95%989,90,0 km/h (0 Bft) W-SW0,0 km/h (0 Bft) W-SW (00:00)
Bergatreute615 m02:10-1,7-1,8 (00:10)-1,6 (00:00)0,0 l/m²88%991,13,2 km/h (1 Bft) SO8,0 km/h (2 Bft) O (00:55)
Biberach (Riss), Boehringer533 m02:20-2,9-3,7 (01:50)-2,8 (02:20)0,0 l/m²98%992,80,0 km/h (0 Bft) S-SO5,0 km/h (1 Bft) W-NW (00:40)
Biberach (Riss), Realschule553 m02:10-3,3-3,4 (01:35)-2,7 (00:00)0,0 l/m²94%992,53,2 km/h (1 Bft) SW6,4 km/h (2 Bft) S-SO (00:00)
Burgrieden523 m02:10-3,4-3,4 (00:30)-3,0 (00:00)0,0 l/m²90%991,50,0 km/h (0 Bft) O6,4 km/h (2 Bft) S-SO (00:15)
Burgrieden-Hochstetten510 m02:10-3,5-3,9 (01:10)-3,0 (14:05)0,0 l/m²94%991,80,0 km/h (0 Bft) S22,5 km/h (4 Bft) W-SW (13:45)
Ebersbach579 m02:10-3,1-3,8 (01:20)-2,8 (00:00)0,0 l/m²95%992,00,0 km/h (0 Bft) N-NO4,8 km/h (1 Bft) O (02:00)
Ebersbach-Boos605 m02:10-3,0-3,5 (01:35)-2,7 (00:00)0,0 l/m²95%991,90,0 km/h (0 Bft) O0,0 km/h (0 Bft) O-SO (00:00)
Ebersbach-Menzenweiler661 m02:10-1,8-1,9 (01:40)-1,0 (00:45)0,0 l/m²89%991,88,0 km/h (2 Bft) S-SO17,7 km/h (3 Bft) O-SO (00:15)
Erlenmoos645 m02:10-2,6-2,7 (01:20)-2,0 (00:20)0,0 l/m²92%991,711,3 km/h (2 Bft) S-SW17,7 km/h (3 Bft) S (00:15)
Ertingen569 m02:10-2,9-3,1 (01:40)-2,8 (00:40)0,0 l/m²95%991,31,6 km/h (1 Bft) SO3,2 km/h (1 Bft) SO (00:10)
Friedrichshafen405 m02:100,0-0,4 (01:00)0,4 (14:40)0,0 l/m²85%992,04,8 km/h (1 Bft) W-SW30,6 km/h (5 Bft) W-NW (12:40)
Günzburg443 m02:10-3,9-3,9 (02:00)-2,7 (00:00)0,0 l/m²92%989,30,0 km/h (0 Bft) S0,0 km/h (0 Bft) S (00:00)
Hochdorf-Appendorf537 m02:10-4,1-5,0 (00:10)-4,1 (02:10)0,0 l/m²79%999,13,2 km/h (1 Bft) S8,0 km/h (2 Bft) NW (00:35)
Höchsten802 m02:10-1,7-2,9 (01:00)-1,7 (02:00)0,0 l/m²89%989,69,7 km/h (2 Bft) SW14,5 km/h (3 Bft) S-SW (01:55)
Horgenzell618 m02:10-1,8-2,2 (00:35)-1,6 (00:00)0,0 l/m²87%990,33,2 km/h (1 Bft) S-SW6,4 km/h (2 Bft) O-SO (00:50)
Hoßkirch632 m02:10-3,1-4,4 (00:20)-3,0 (02:10)0,0 l/m²95%990,40,0 km/h (0 Bft) N6,4 km/h (2 Bft) N (01:15)
Isny, Am Dreifingerbach695 m02:10-5,3-7,2 (00:30)-5,3 (02:10)0,0 l/m²95%991,89,7 km/h (2 Bft) O-SO9,7 km/h (2 Bft) O (02:10)
Isny, Weidachweg706 m02:10-5,1-7,0 (00:50)-5,0 (02:10)0,0 l/m²88%994,18,0 km/h (2 Bft) SO8,0 km/h (2 Bft) SO (02:00)
Kappel-Grafenhausen163 m02:052,40,1 (22:35)2,4 (13:55)0,0 l/m²90%987,017,7 km/h (3 Bft) S33,8 km/h (5 Bft) S (12:10)
Kirchberg an der Iller584 m02:10-2,7-3,0 (01:20)-2,4 (03:00)0,0 l/m²87%983,40,0 km/h (0 Bft) S-SO22,2 km/h (4 Bft) O-SO (12:40)
Kißlegg-Staibshof709 m02:10-3,4-3,7 (00:00)-3,4 (02:05)0,0 l/m²92%991,90,0 km/h (0 Bft) S-SO0,0 km/h (0 Bft) SW (00:00)
Kressbronn398 m02:121,41,1 (00:14)2,1 (00:50)0,0 l/m²86%990,90,0 km/h (0 Bft) W29,0 km/h (5 Bft) W (00:42)
Kreuzthal-Steinberg-Alpe930 m02:10-5,0-5,5 (01:50)-4,9 (02:10)0,0 l/m²100%996,51,4 km/h (1 Bft) SW6,5 km/h (2 Bft) W-NW (00:00)
Kreuzthal-Steinberggipfel1040 m02:10-3,5-4,4 (00:10)-3,2 (01:50)-86%996,55,4 km/h (1 Bft) W-SW12,2 km/h (3 Bft) S (00:00)
Kristberg im Montafon (AT)1425 m02:10-2,3-5,6 (00:00)-2,3 (02:10)0,0 l/m²58%994,89,7 km/h (2 Bft) S-SO9,7 km/h (2 Bft) N-NO (00:15)
Laupheim500 m02:10-2,9-3,5 (00:05)-2,9 (02:10)0,0 l/m²92%991,00,0 km/h (0 Bft) O-SO4,8 km/h (1 Bft) O-SO (00:45)
Leutkirch-Heggelbach670 m02:10-5,6-6,2 (01:30)-5,6 (00:00)0,0 l/m²93%991,20,0 km/h (0 Bft) W-SW1,6 km/h (1 Bft) SW (00:10)
Lindau-Insel420 m02:102,11,5 (00:40)2,3 (15:10)0,0 l/m²84%991,43,2 km/h (1 Bft) W-NW27,4 km/h (4 Bft) S-SO (21:00)
Lindau-Stadt412 m02:101,60,9 (20:10)1,6 (14:45)0,0 l/m²81%991,81,6 km/h (1 Bft) O-SO24,1 km/h (4 Bft) O-SO (14:30)
Maierhöfen im Allgäu733 m02:15-7,3-10,2 (00:40)-7,3 (02:15)0,0 l/m²94%992,96,4 km/h (2 Bft) NW6,4 km/h (2 Bft) NW (02:15)
Maselheim543 m02:10-3,2-3,7 (00:50)-2,8 (15:20)0,0 l/m²91%991,83,2 km/h (1 Bft) S29,0 km/h (5 Bft) SW (12:20)
Maselheim-Sulmingen548 m02:10-3,3-4,1 (00:15)-3,3 (15:20)0,0 l/m²94%993,10,0 km/h (0 Bft) O30,6 km/h (5 Bft) W (12:45)
Mietingen-Baltringen528 m02:10-3,2-3,3 (01:50)-2,7 (00:00)0,0 l/m²90%993,20,0 km/h (0 Bft) W6,4 km/h (2 Bft) O-SO (00:35)
Mittelbiberach577 m02:10-3,4-4,3 (00:10)-3,3 (15:10)0,0 l/m²93%992,83,2 km/h (1 Bft) SW25,7 km/h (4 Bft) W-SW (13:30)
Neresheim552 m02:00-3,2-3,2 (02:00)-2,0 (00:00)0,0 l/m²100%988,36,5 km/h (2 Bft) SO6,5 km/h (2 Bft) SO (02:00)
Neukirch570 m02:10-2,4-2,6 (23:00)-0,7 (14:55)0,0 l/m²91%992,03,2 km/h (1 Bft) NO30,6 km/h (5 Bft) W-SW (12:10)
Ochsenhausen, Birkenstraße613 m02:10-3,2-3,4 (01:50)-2,2 (15:10)0,0 l/m²86%992,20,0 km/h (0 Bft) N0,0 km/h (0 Bft) N (03:00)
Ochsenhausen, Unt. Wiesen575 m02:10-3,4-3,8 (01:20)-2,3 (00:00)0,0 l/m²92%993,24,8 km/h (1 Bft) S6,4 km/h (2 Bft) S (01:50)
Ostrach619 m02:10-2,2-3,8 (00:45)-2,2 (02:05)0,0 l/m²96%990,01,6 km/h (1 Bft) S4,8 km/h (1 Bft) S (00:55)
Ravensburg, Goethestraße428 m02:20-1,3-1,6 (00:50)-1,3 (00:25)0,0 l/m²93%991,00,0 km/h (0 Bft) N-NO3,2 km/h (1 Bft) N-NO (02:10)
Ravensburg, Springerstraße441 m02:10-0,6-1,4 (00:00)-0,6 (02:10)0,0 l/m²85%990,10,0 km/h (0 Bft) O-NO0,0 km/h (0 Bft) O-NO (00:00)
Ravensburg-Wernsreute511 m02:10-1,6-2,4 (23:45)-1,6 (14:35)0,0 l/m²92%993,94,8 km/h (1 Bft) O30,6 km/h (5 Bft) W-SW (11:45)
Reichenbach an der Fils343 m02:101,0-0,6 (00:20)1,3 (01:35)0,0 l/m²79%991,99,7 km/h (2 Bft) O-SO19,3 km/h (3 Bft) O-SO (00:55)
Reinstetten559 m02:10-3,8-3,9 (01:45)-2,7 (00:00)0,0 l/m²92%992,40,0 km/h (0 Bft) W-SW8,0 km/h (2 Bft) SW (00:10)
Riedlingen530 m02:10-2,9-3,4 (01:15)-2,9 (02:05)0,0 l/m²96%991,70,0 km/h (0 Bft) O-SO0,0 km/h (0 Bft) S-SW (00:00)
Rißtissen489 m02:10-2,7-3,0 (00:45)-2,7 (00:00)0,0 l/m²94%989,10,0 km/h (0 Bft) S-SO0,0 km/h (0 Bft) S-SW (00:00)
Schemmerhofen520 m02:10-3,4-3,7 (01:25)-3,2 (00:00)0,0 l/m²96%991,30,0 km/h (0 Bft) O-SO4,8 km/h (1 Bft) O-SO (00:35)
Silbertal im Montafon (AT)884 m02:10-3,3-6,5 (00:00)-3,3 (02:10)0,0 l/m²96%994,73,2 km/h (1 Bft) O-NO6,4 km/h (2 Bft) O-NO (01:00)
Tettnang466 m02:100,90,8 (00:05)1,0 (01:05)0,0 l/m²80%991,54,8 km/h (1 Bft) O-SO16,1 km/h (3 Bft) SO (00:05)
Tuttlingen662 m02:08-2,2-4,2 (00:13)-1,9 (01:53)0,0 l/m²83%994,23,1 km/h (1 Bft) NO3,1 km/h (1 Bft) NO (02:08)
Tuttlingen, Möhringer-Vorstadt711 m02:10-1,8-3,8 (23:40)-1,8 (13:50)0,0 l/m²95%991,18,0 km/h (2 Bft) SW19,3 km/h (3 Bft) W (13:50)
Ummendorf547 m02:10-3,3-3,9 (00:20)-2,4 (00:00)0,0 l/m²86%992,90,0 km/h (0 Bft) S6,4 km/h (2 Bft) S (02:05)
Ummendorf-Fischbach558 m02:10-3,4-4,3 (00:05)-3,4 (02:10)0,0 l/m²86%992,64,8 km/h (1 Bft) O-SO6,4 km/h (2 Bft) S (00:40)
Waldburg707 m02:10-1,5-2,3 (00:55)-1,5 (02:10)0,0 l/m²84%991,40,0 km/h (0 Bft) N9,7 km/h (2 Bft) N (00:10)
Waltenhofen im Allgäu720 m02:10-5,4-7,0 (00:25)-5,4 (01:55)0,0 l/m²93%991,94,8 km/h (1 Bft) S30,6 km/h (5 Bft) S (13:05)
Weingarten500 m02:10-1,2-2,1 (00:00)-1,2 (02:10)0,0 l/m²92%991,20,0 km/h (0 Bft) SO1,6 km/h (1 Bft) W-NW (00:25)
Winterlingen785 m02:00-3,3-5,2 (00:15)-3,3 (02:00)0,0 l/m²98%990,35,0 km/h (1 Bft) S-SO5,0 km/h (1 Bft) S-SO (02:00)

niederschlagsdatenbank | info | login - erfassung

Sollten Sie Interesse haben, an der Niederschlagsdatenbank teilzunehmen, finden Sie > hier < weitere Informationen.
Datum: . . Kalender
Anmerkung:0,0 = nicht messbarer Niederschlag
 -  = kein Niederschlag
 k  = kumulierter Niederschlag

< 11.12.201913.12.2019 >


Niederschlagswerte vom 12.12.2019    -    derzeit 110 Stationen

Die Niederschlagswerte des gewählten Tages lassen sich durch Klicken auf das Datum sortieren.
Die Angaben sind in l/m².

Station09.12.10.12.11.12.12.12.13.12.Bemerkung 12.12.
Aichstetten Ulmenstraße 7-----
Aichstetten-Nestbaum Nestbaum-----
Albbruck Furmisstr. 1815,3-9,8--
Allmendingen Querqueviller Ring 64,0-2,5--
Amstetten-Reutti Gassenäcker 137,6-3,8--
Schneehöhe: 3 cm
Aulendorf Steinenbacher Weg 332,01,82,0--
Aulendorf-Blönried Heuweg 32-----
Bad Bellingen Rheinstraße 76-----
Bad Buchau Hanfweiher 12,0-1,5--
Bad Saulgau Walserweg3,0-1,5--
Bad Saulgau-Hochberg Lampertsweiler Straße 12-----
Bad Schussenried Konradstraße1,90,12,30,4-
Regen Nieselregen Schneeregen Schnee Bodennebel Schneegriesel
Schneehöhe: Schneereste
Bad Schussenried Lortzingstrasse2,5-2,4--
Bad Schussenried Klosterstraße2,0-2,0--
Bad Schussenried Theodor-Storm-Strasse2,5----
Bad Schussenried-Hopferbach Unterer Öschweg 16/1-2,2---
Bad Schussenried-Lufthütte Hauptgasse 172,0-2,0--
Bad Schussenried-Sattenbeuren Ortsstraße 72,0----
Bad Schussenried-Schwaigfurt Schwaigfurt 2-----
Bad Waldsee-Haisterkirch Zur Spitzenkapelle 13,5-1,0--
Bad Wurzach-Seibranz Kimpflerhof 2 5,5-4,0--
Schneehöhe: 4 cm
Baienfurt Untere Bergstrasse 7-----
Balzheim Hinterm Liess 192,5-2,5--
Berg-Kleintobel Kleintobel5,0----
Biberach Amriswilstrasse0,80,1---
Biberach Strölinweg0,50,03,0--
Schneehöhe: "gezuckert"
Biberach Erlenweg0,8----
Biberach Neue Heimat 51,5----
Biberach Mittelbergstraße 91,0-2,51,5-
Regen Schneeregen
Biberach-Bergerhausen Löcherstr.1--3,0--
Bierstetten Schloßbühl 62,0-1,2--
Blaubeuren-Pappelau Sotzenhauserstr.74,00,53,0--
Schneehöhe: 2 cm
Bühlertal Wolfinstraße 16-----
Dornstadt-Tomerdingen Maienweg 96,90,32,3--
Dürnau Dorfäckerweg 52,0----
Eberhardzell Lilienweg1,6-2,2--
Schneehöhe: Reste
Ebersbach-Roßwälden Appenwiesen5,60,0---
Ehingen Rosenstraße3,00,32,7--
Schneehöhe: Reste
Ehingen Zanderstraße-----
Ehingen Schlaufenbühl3,80,31,2--
Schneehöhe: taut ab
Ehingen Schillerstraße2,8-3,2--
Ehingen-Herbertshofen Tobelweg 9-----
Eislingen Albstraße 1256,70,08,0--
Erbach-Bach Hauptstraße 24-----
Erlenmoos Haldenweg 152,90,24,0--
Füramoos Hungersberg 1-0,7-2,7-
Gutenzell Kleinser Berg 12,0----
Gutenzell-Hürbel Bei der Sägmühle 12,0-3,0--
Herbertingen Drosselweg2,5-1,0--
Schneehöhe: -
Herbertingen Hirschstrasse5,0-2,0--
Hochdorf-Schweinhausen Lindenweg 21,1-2,8--
Hohentengen-Bremen Bremer Halde 43,0----
Horgenzell-Ringgenweiler Ringgenweiler 6206,2-5,0--
Schneehöhe: 1 cm
Hüttisheim Ulmer Weg 22,80,01,8--
Schneehöhe: Reste
Illerkirchberg Mahdauweg 203,50,42,2--
Schneehöhe: Reste
Illerrieden-Wangen Am Muckenberg 123,5-3,0--
Immenstaad Stockwiesen 10-----
Inzigkofen Butzenweg 15,3-1,2--
Isny Am Dreifingerbach 3912,00,24,6--
Schneehöhe: 1 cm
Kirchberg Rosenstr. 73,0-2,5--
Kreuzthal-Steinberg-Alpe Im Kreuzbachthal 8517,80,38,8--
Schneehöhe: 10 cm
Langenau Wasserstr. 54-13,01,01,5--
Langenenslingen Schattenweiler Str. 183,20,01,4--
Schneehöhe: Reste
Leutkirch Unterer Auenweg 25-----
Leutkirch Nachtigallenweg 286,5-3,5--
Schneehöhe: 2cm
Leutkirch-Adrazhofen Bergstraße 206,0-4,0--
Schneehöhe: 1 cm
Merklingen Millergasse 9-----
Mietingen Seerosenweg 10-----
Mietingen-Walpertshofen Bussenweg 31-----
Mittelbiberach-Reute Rindenmooser Straße 21,8-3,0--
Schneehöhe: Flecken
Moosburg Käserweg 54,0-1,8--
Münsingen-Rietheim In der Lise 208,8----
Neresheim Alfred-Delp-Straße 86,70,02,9--
Schneehöhe: 3 cm
Oberdischingen Normannenstraße 7-----
Ochsenhausen Ehrensberger Weg 52,00,01,5--
Schneehöhe: Flecken
Öpfingen Hauptstraße 992,80,02,5--
Schneehöhe: 1Cm
Ostrach Uhlandweg3,5-1,5--
Pfaffenhofen-Kadeltshofen Mühlbachstraße 42,0-2,0--
Pfullendorf Am Schweizersbild 4,3----
Rangendingen Donaustraße 191,0-5,5--
Ravensburg Bleicherstraße5,0-6,3--
Ravensburg-Schmalegg St.-Magdalena-Ring 425,1-6,0--
Ravensburg-Wernsreute Wernsreute 256,0-2,8--
Ravensburg-Weststadt Karl-Erb-Ring 1426,0-5,6--
Regensburg Orleansstraße 34,9----
Riedhausen Blütenweg 133,6-2,6--
Riedlingen Berliner Str. 412,7-2,0--
Riedlingen-Neufra Panoramaweg2,0-2,0--
Riedlingen-Neufra Riedlinger Strasse--2,0--
Schelklingen-Gundershofen Schwarzer-Straße 148,5-5,0--
Schneehöhe: 3 cm
Schemmerberg Drosselweg 91,5-2,5--
Schwörstadt Schulstrasse 191,0-8,4--
Seekirch Haldenberg 70,0----
Sigmaringendorf Weingartenstraße 73,2-0,8--
Tuttlingen-Möhringen Eßlinger Straße9,00,11,2--
Schneehöhe: 1 cm / Randl. 2 cm
Ulm Eberhardtstraße 752,81,01,3--
Ummendorf Tulpenweg1,00,04,0--
Ummendorf Friedrich-Schiller-Str.-----
Uttenweiler-Ahlen Seekircher Straße 85,0----
Vöhringen (Schwarzwald) Drosselweg 35,0----
Waldburg Kastanienweg118,0-8,5--
Schneehöhe: 3 cm
Wangen-Bergerhöhe Berg 29,5-8,4--
Schneehöhe: 1 cm
Warthausen An der Schloßhalde 1,3----
Warthausen Schwabenwiesen 2,0----
Warthausen-Barabein Barabein 201,8-3,5--
Weingarten Laurastraße4,00,03,5--
Weingarten Hoyerstraße-----
Weingarten Marienstraße4,5-5,0--
Wolfegg-Veesers Veesers 1-----
Wolpertswende Aulendorfer Str. 172,2-1,5--
Schneehöhe: 0,0

Stillgelegte Niederschlagsstationen    -    derzeit 50 Stationen

StationLetzte Meldung09.12.10.12.11.12.12.12.13.12.Bemerkung 12.12.
Allmannsweiler Eggatsweilerstr.2802.09.2014-----
Aulendorf-Rugetsweiler Erikaweg 325.07.2013-----
Aulendorf-Zollenreute Imterstraße 1209.02.2019-----
Bad Saulgau Willi-Burth-Straße19.09.2011-----
Bad Saulgau Eichendorffweg28.03.2013-----
Bad Saulgau Seewattenstraße 12815.01.2014-----
Bad Saulgau-Lampertsweiler Valentinstr. 2618.02.2015-----
Bad Schussenried-Steinhausen Drosselgasse 4/126.09.2012-----
Bad Waldsee-Michelwinnanden Michelberg 531.12.2014-----
Bad Waldsee-Osterhofen Hochwaldgasse 406.03.2015-----
Bad Waldsee-Steinach Hofraingasse 1510.11.2013-----
Bad Wurzach-Dietmanns Postweg 519.01.2019-----
Bad Wurzach-Haidgau Wengener Straße 507.10.2012-----
Bad Wurzach-Ziegelbach Ziegelbach-Greut 507.11.2014-----
Bergatreute Bolanden 113.02.2012-----
Betzenweiler Offinger Straße 505.01.2017-----
Burgrieden Am Nonnenberg 328.10.2013-----
Burgrieden-Rot Schmiedgasse 518.09.2013-----
Dettingen a. d. Iller Schleifweg 420.05.2019-----
Eberhardzell Schillerstraße05.07.2010-----
Ehingen Am Elzengraben17.06.2016-----
Gammertingen Schillerstraße 2216.01.2016-----
Griesingen Blumenstraße 906.10.2015-----
Günzburg Erlenbadweg 34 1/231.12.2010-----
Hoßkirch Kirchstraße 805.01.2018-----
Ingoldingen-Grodt Ingoldinger Weg 1919.11.2016-----
Kisslegg Kirchmoosstraße02.05.2011-----
Krauchenwies-Hausen Rosenrain 123.11.2013-----
Kressbronn Irisstraße 410.03.2010-----
Leutkirch-Ottmannshofen Spitalriedstraße 527.07.2012-----
Leutkirch-Rotis Rotis 5/208.05.2016-----
Leutkirch-Wuchzenhofen Untere Kirchstraße 18/119.09.2016-----
Mietingen Hangweg 1530.12.2017-----
Mössingen-Bästenhardt Weissdornweg 721.07.2014-----
Ostrach Heiligenberger Straße19.08.2013-----
Pfullendorf Ringstraße 18.03.2012-----
Ravensburg Olgastraße30.10.2016-----
Seltmans Amselweg 2209.04.2013-----
Stuttgart-Bad Cannstatt Beuthener Str. 6703.02.2013-----
Stuttgart-Möhringen Glashütter Weg 1023.04.2017-----
Stuttgart-Rohr Hirschsprung 307.11.2012-----
Talheim Im Schecken 2121.08.2016-----
Tannheim Eggmannstr. 42 22.10.2017-----
Tettnang-Ramsbach Jahnstr. 24/126.03.2011-----
Tuttlingen-Möhringen Belchenstraße01.01.2015-----
Ummendorf Bergstraße23.10.2017-----
Vogt Mühlwies 1822.05.2015-----
Wangen-Atzenberg Keplerweg 324.02.2019-----
Weingarten Bischof-Sproll-Straße30.06.2011-----
Wilhelmsdorf Riedhauser Straße 28.10.2012-----
Wilhelmsdorf Seefeld20.08.2013-----
Wurmlingen An der Steig 3014.10.2016-----
Die Niederschlagswerte des gewählten Tages lassen sich durch Klicken auf das Datum sortieren.
Die Angaben sind in l/m².

Wetterbeobachtungen Legende:

  • Regen
  • Nieselregen
  • Schneeregen
  • Schnee
  • Graupel
  • Eiskörner
  • Hagel
  • Bodennebel
  • Gewitter
  • Nebelnässe
  • Schneegriesel

Grafische Darstellung der Tagesniederschläge vom 12.12.2019

< 11.12.201913.12.2019 >Monats- und Jahresniederschlag


 
wetterstationen
wetterstationen
- derzeit 78 Stationen
niederschlagsdatenbank
wetterstationen
- kartographische Darstellung
niederschlagsdatenbank
niederschlagsstationen
- derzeit 110 Stationen
niederschlagsdatenbank
niederschlagsstationen
- kartographische Darstellung
 
 
Do. 7.30 Uhr - Fr. 7.30 Uhr (MEZ)
1.Füramoos
Hungersberg 1
2,7 l/m²
2.Biberach
Mittelbergstraße 9
1,5 l/m²
3.Bad Schussenried
Konradstraße
0,4 l/m²
 
  treffpunkt & service
--- Anzeigen --------------------------------
zugriffe:
insgesamt: 45.315.026
aktueller monat: 121.968
heute: 156
momentan online: 4
 
 
monatshöchstwert: 653.625
vorheriger monat: 372.551
gestern: 7.263
tageshöchstwert: 51.297
 
wetterwarte süd
 
konradstraße 3
info@wetterwarte-sued.com
roland roth
 
88427 bad schussenried